sensor_id;sensor_type;location;lat;lon;timestamp;P1;durP1;ratioP1;P2;durP2;ratioP2
3463;SDS011;3551;41.578;24.706;2024-03-02T00:00:38;28.87;;;13.00;;
3463;SDS011;3551;41.578;24.706;2024-03-02T00:03:05;29.40;;;13.10;;
3463;SDS011;3551;41.578;24.706;2024-03-02T00:05:34;24.30;;;11.40;;
3463;SDS011;3551;41.578;24.706;2024-03-02T00:08:01;24.20;;;13.63;;
3463;SDS011;3551;41.578;24.706;2024-03-02T00:10:34;20.97;;;11.53;;
3463;SDS011;3551;41.578;24.706;2024-03-02T00:13:05;25.80;;;10.97;;
3463;SDS011;3551;41.578;24.706;2024-03-02T00:15:38;23.20;;;13.73;;
3463;SDS011;3551;41.578;24.706;2024-03-02T00:18:08;28.53;;;13.93;;
3463;SDS011;3551;41.578;24.706;2024-03-02T00:20:38;35.53;;;15.77;;
3463;SDS011;3551;41.578;24.706;2024-03-02T00:23:06;36.77;;;18.50;;
3463;SDS011;3551;41.578;24.706;2024-03-02T00:25:39;31.07;;;16.60;;
3463;SDS011;3551;41.578;24.706;2024-03-02T00:28:14;26.67;;;15.93;;
3463;SDS011;3551;41.578;24.706;2024-03-02T00:30:57;32.97;;;16.87;;
3463;SDS011;3551;41.578;24.706;2024-03-02T00:33:30;35.20;;;20.70;;
3463;SDS011;3551;41.578;24.706;2024-03-02T00:35:58;29.95;;;16.52;;
3463;SDS011;3551;41.578;24.706;2024-03-02T00:38:26;34.75;;;19.20;;
3463;SDS011;3551;41.578;24.706;2024-03-02T00:40:55;52.45;;;26.27;;
3463;SDS011;3551;41.578;24.706;2024-03-02T00:46:11;36.00;;;20.75;;
3463;SDS011;3551;41.578;24.706;2024-03-02T00:48:39;42.30;;;22.30;;
3463;SDS011;3551;41.578;24.706;2024-03-02T00:51:15;46.90;;;23.83;;
3463;SDS011;3551;41.578;24.706;2024-03-02T00:53:42;39.23;;;22.17;;
3463;SDS011;3551;41.578;24.706;2024-03-02T00:56:10;46.70;;;23.77;;
3463;SDS011;3551;41.578;24.706;2024-03-02T00:58:38;42.93;;;22.67;;
3463;SDS011;3551;41.578;24.706;2024-03-02T01:01:05;39.03;;;22.90;;
3463;SDS011;3551;41.578;24.706;2024-03-02T01:03:33;41.80;;;22.37;;
3463;SDS011;3551;41.578;24.706;2024-03-02T01:05:59;35.90;;;21.20;;
3463;SDS011;3551;41.578;24.706;2024-03-02T01:08:27;41.27;;;21.73;;
3463;SDS011;3551;41.578;24.706;2024-03-02T01:10:54;42.83;;;23.03;;
3463;SDS011;3551;41.578;24.706;2024-03-02T01:13:23;39.67;;;22.60;;
3463;SDS011;3551;41.578;24.706;2024-03-02T01:15:50;43.77;;;21.10;;
3463;SDS011;3551;41.578;24.706;2024-03-02T01:18:17;40.30;;;21.75;;
3463;SDS011;3551;41.578;24.706;2024-03-02T01:20:44;45.43;;;21.73;;
3463;SDS011;3551;41.578;24.706;2024-03-02T01:23:11;41.10;;;21.80;;
3463;SDS011;3551;41.578;24.706;2024-03-02T01:25:38;36.97;;;20.83;;
3463;SDS011;3551;41.578;24.706;2024-03-02T01:28:05;40.97;;;19.63;;
3463;SDS011;3551;41.578;24.706;2024-03-02T01:30:34;32.53;;;18.60;;
3463;SDS011;3551;41.578;24.706;2024-03-02T01:33:02;34.17;;;19.47;;
3463;SDS011;3551;41.578;24.706;2024-03-02T01:35:30;35.53;;;21.77;;
3463;SDS011;3551;41.578;24.706;2024-03-02T01:37:57;45.20;;;22.40;;
3463;SDS011;3551;41.578;24.706;2024-03-02T01:40:24;47.50;;;22.13;;
3463;SDS011;3551;41.578;24.706;2024-03-02T01:42:52;43.20;;;22.93;;
3463;SDS011;3551;41.578;24.706;2024-03-02T01:45:20;38.43;;;19.20;;
3463;SDS011;3551;41.578;24.706;2024-03-02T01:47:48;37.87;;;19.00;;
3463;SDS011;3551;41.578;24.706;2024-03-02T01:50:15;33.83;;;18.60;;
3463;SDS011;3551;41.578;24.706;2024-03-02T01:52:50;37.07;;;17.10;;
3463;SDS011;3551;41.578;24.706;2024-03-02T01:55:17;32.47;;;18.73;;
3463;SDS011;3551;41.578;24.706;2024-03-02T01:57:45;28.87;;;16.67;;
3463;SDS011;3551;41.578;24.706;2024-03-02T02:00:13;42.77;;;19.13;;
3463;SDS011;3551;41.578;24.706;2024-03-02T02:02:41;46.33;;;24.70;;
3463;SDS011;3551;41.578;24.706;2024-03-02T02:05:09;40.90;;;23.73;;
3463;SDS011;3551;41.578;24.706;2024-03-02T02:07:36;40.13;;;22.95;;
3463;SDS011;3551;41.578;24.706;2024-03-02T02:10:04;46.63;;;23.70;;
3463;SDS011;3551;41.578;24.706;2024-03-02T02:12:32;42.22;;;24.77;;
3463;SDS011;3551;41.578;24.706;2024-03-02T02:14:59;42.30;;;23.92;;
3463;SDS011;3551;41.578;24.706;2024-03-02T02:17:26;46.10;;;24.65;;
3463;SDS011;3551;41.578;24.706;2024-03-02T02:19:53;55.22;;;27.55;;
3463;SDS011;3551;41.578;24.706;2024-03-02T02:22:22;56.15;;;27.15;;
3463;SDS011;3551;41.578;24.706;2024-03-02T02:24:49;43.80;;;23.30;;
3463;SDS011;3551;41.578;24.706;2024-03-02T02:27:16;40.17;;;23.40;;
3463;SDS011;3551;41.578;24.706;2024-03-02T02:29:43;41.38;;;23.08;;
3463;SDS011;3551;41.578;24.706;2024-03-02T02:32:10;46.67;;;22.60;;
3463;SDS011;3551;41.578;24.706;2024-03-02T02:34:37;49.58;;;21.70;;
3463;SDS011;3551;41.578;24.706;2024-03-02T02:37:04;42.40;;;21.65;;
3463;SDS011;3551;41.578;24.706;2024-03-02T02:39:33;41.47;;;22.53;;
3463;SDS011;3551;41.578;24.706;2024-03-02T02:42:01;38.10;;;20.50;;
3463;SDS011;3551;41.578;24.706;2024-03-02T02:44:28;35.47;;;21.20;;
3463;SDS011;3551;41.578;24.706;2024-03-02T02:46:56;70.87;;;27.20;;
3463;SDS011;3551;41.578;24.706;2024-03-02T02:49:23;55.07;;;30.00;;
3463;SDS011;3551;41.578;24.706;2024-03-02T02:51:50;88.55;;;40.30;;
3463;SDS011;3551;41.578;24.706;2024-03-02T02:54:18;100.90;;;43.08;;
3463;SDS011;3551;41.578;24.706;2024-03-02T02:56:47;104.70;;;44.33;;
3463;SDS011;3551;41.578;24.706;2024-03-02T02:59:15;98.45;;;45.33;;
3463;SDS011;3551;41.578;24.706;2024-03-02T03:01:43;88.43;;;41.17;;
3463;SDS011;3551;41.578;24.706;2024-03-02T03:04:10;85.18;;;37.20;;
3463;SDS011;3551;41.578;24.706;2024-03-02T03:06:37;63.43;;;33.07;;
3463;SDS011;3551;41.578;24.706;2024-03-02T03:09:05;58.10;;;30.02;;
3463;SDS011;3551;41.578;24.706;2024-03-02T03:11:33;56.53;;;28.30;;
3463;SDS011;3551;41.578;24.706;2024-03-02T03:14:01;49.30;;;21.67;;
3463;SDS011;3551;41.578;24.706;2024-03-02T03:16:30;43.10;;;23.00;;
3463;SDS011;3551;41.578;24.706;2024-03-02T03:18:58;50.30;;;26.10;;
3463;SDS011;3551;41.578;24.706;2024-03-02T03:21:25;45.53;;;24.90;;
3463;SDS011;3551;41.578;24.706;2024-03-02T03:23:52;51.60;;;25.80;;
3463;SDS011;3551;41.578;24.706;2024-03-02T03:26:20;45.25;;;24.42;;
3463;SDS011;3551;41.578;24.706;2024-03-02T03:28:48;43.67;;;23.30;;
3463;SDS011;3551;41.578;24.706;2024-03-02T03:31:16;46.13;;;24.57;;
3463;SDS011;3551;41.578;24.706;2024-03-02T03:33:44;38.53;;;22.20;;
3463;SDS011;3551;41.578;24.706;2024-03-02T03:36:12;40.60;;;22.57;;
3463;SDS011;3551;41.578;24.706;2024-03-02T03:38:39;36.50;;;20.67;;
3463;SDS011;3551;41.578;24.706;2024-03-02T03:41:06;45.00;;;21.87;;
3463;SDS011;3551;41.578;24.706;2024-03-02T03:43:33;33.65;;;20.60;;
3463;SDS011;3551;41.578;24.706;2024-03-02T03:46:03;39.00;;;19.27;;
3463;SDS011;3551;41.578;24.706;2024-03-02T03:48:31;47.37;;;20.90;;
3463;SDS011;3551;41.578;24.706;2024-03-02T03:50:59;37.13;;;21.73;;
3463;SDS011;3551;41.578;24.706;2024-03-02T03:53:26;40.23;;;22.20;;
3463;SDS011;3551;41.578;24.706;2024-03-02T03:55:53;40.03;;;20.53;;
3463;SDS011;3551;41.578;24.706;2024-03-02T03:58:20;37.53;;;20.33;;
3463;SDS011;3551;41.578;24.706;2024-03-02T04:00:48;44.30;;;22.00;;
3463;SDS011;3551;41.578;24.706;2024-03-02T04:03:15;37.87;;;21.07;;
3463;SDS011;3551;41.578;24.706;2024-03-02T04:05:44;32.50;;;19.03;;
3463;SDS011;3551;41.578;24.706;2024-03-02T04:08:11;35.30;;;20.83;;
3463;SDS011;3551;41.578;24.706;2024-03-02T04:10:39;29.60;;;17.73;;
3463;SDS011;3551;41.578;24.706;2024-03-02T04:13:07;42.17;;;20.77;;
3463;SDS011;3551;41.578;24.706;2024-03-02T04:15:35;34.67;;;18.25;;
3463;SDS011;3551;41.578;24.706;2024-03-02T04:18:02;40.65;;;20.45;;
3463;SDS011;3551;41.578;24.706;2024-03-02T04:20:30;34.83;;;19.80;;
3463;SDS011;3551;41.578;24.706;2024-03-02T04:22:58;31.27;;;19.05;;
3463;SDS011;3551;41.578;24.706;2024-03-02T04:25:24;35.70;;;18.45;;
3463;SDS011;3551;41.578;24.706;2024-03-02T04:27:52;43.63;;;20.40;;
3463;SDS011;3551;41.578;24.706;2024-03-02T04:30:19;38.50;;;20.30;;
3463;SDS011;3551;41.578;24.706;2024-03-02T04:32:46;38.60;;;20.80;;
3463;SDS011;3551;41.578;24.706;2024-03-02T04:35:14;46.27;;;21.83;;
3463;SDS011;3551;41.578;24.706;2024-03-02T04:37:41;41.23;;;25.37;;
3463;SDS011;3551;41.578;24.706;2024-03-02T04:40:11;55.27;;;30.73;;
3463;SDS011;3551;41.578;24.706;2024-03-02T04:42:38;48.97;;;30.67;;
3463;SDS011;3551;41.578;24.706;2024-03-02T04:45:07;42.97;;;26.47;;
3463;SDS011;3551;41.578;24.706;2024-03-02T04:47:34;47.77;;;26.57;;
3463;SDS011;3551;41.578;24.706;2024-03-02T04:50:01;40.85;;;24.50;;
3463;SDS011;3551;41.578;24.706;2024-03-02T04:52:29;54.67;;;26.93;;
3463;SDS011;3551;41.578;24.706;2024-03-02T04:54:56;44.20;;;28.10;;
3463;SDS011;3551;41.578;24.706;2024-03-02T04:57:46;53.50;;;29.40;;
3463;SDS011;3551;41.578;24.706;2024-03-02T05:00:16;55.03;;;28.47;;
3463;SDS011;3551;41.578;24.706;2024-03-02T05:02:44;58.27;;;29.87;;
3463;SDS011;3551;41.578;24.706;2024-03-02T05:05:11;49.07;;;29.80;;
3463;SDS011;3551;41.578;24.706;2024-03-02T05:07:38;57.60;;;30.97;;
3463;SDS011;3551;41.578;24.706;2024-03-02T05:10:07;53.27;;;31.07;;
3463;SDS011;3551;41.578;24.706;2024-03-02T05:12:35;51.20;;;29.03;;
3463;SDS011;3551;41.578;24.706;2024-03-02T05:15:22;59.17;;;31.90;;
3463;SDS011;3551;41.578;24.706;2024-03-02T05:17:49;55.93;;;30.10;;
3463;SDS011;3551;41.578;24.706;2024-03-02T05:20:16;56.43;;;33.77;;
3463;SDS011;3551;41.578;24.706;2024-03-02T05:22:43;64.10;;;36.73;;
3463;SDS011;3551;41.578;24.706;2024-03-02T05:25:10;66.37;;;37.73;;
3463;SDS011;3551;41.578;24.706;2024-03-02T05:27:37;62.13;;;36.43;;
3463;SDS011;3551;41.578;24.706;2024-03-02T05:30:05;64.07;;;34.70;;
3463;SDS011;3551;41.578;24.706;2024-03-02T05:32:34;58.37;;;33.00;;
3463;SDS011;3551;41.578;24.706;2024-03-02T05:35:01;65.80;;;33.27;;
3463;SDS011;3551;41.578;24.706;2024-03-02T05:37:30;65.27;;;34.10;;
3463;SDS011;3551;41.578;24.706;2024-03-02T05:39:57;57.17;;;31.40;;
3463;SDS011;3551;41.578;24.706;2024-03-02T05:42:24;59.63;;;31.27;;
3463;SDS011;3551;41.578;24.706;2024-03-02T05:44:52;64.37;;;33.50;;
3463;SDS011;3551;41.578;24.706;2024-03-02T05:47:19;66.27;;;35.43;;
3463;SDS011;3551;41.578;24.706;2024-03-02T05:49:48;58.70;;;35.50;;
3463;SDS011;3551;41.578;24.706;2024-03-02T05:52:15;61.93;;;36.87;;
3463;SDS011;3551;41.578;24.706;2024-03-02T05:54:42;62.13;;;33.58;;
3463;SDS011;3551;41.578;24.706;2024-03-02T05:57:09;63.90;;;33.63;;
3463;SDS011;3551;41.578;24.706;2024-03-02T05:59:59;68.07;;;37.43;;
3463;SDS011;3551;41.578;24.706;2024-03-02T06:02:26;65.50;;;38.67;;
3463;SDS011;3551;41.578;24.706;2024-03-02T06:04:55;68.00;;;37.90;;
3463;SDS011;3551;41.578;24.706;2024-03-02T06:07:22;61.67;;;35.80;;
3463;SDS011;3551;41.578;24.706;2024-03-02T06:09:49;68.00;;;38.77;;
3463;SDS011;3551;41.578;24.706;2024-03-02T06:12:17;74.90;;;39.73;;
3463;SDS011;3551;41.578;24.706;2024-03-02T06:14:45;68.87;;;37.67;;
3463;SDS011;3551;41.578;24.706;2024-03-02T06:17:12;79.37;;;39.17;;
3463;SDS011;3551;41.578;24.706;2024-03-02T06:19:40;66.10;;;39.70;;
3463;SDS011;3551;41.578;24.706;2024-03-02T06:22:08;69.73;;;39.40;;
3463;SDS011;3551;41.578;24.706;2024-03-02T06:24:36;60.60;;;37.00;;
3463;SDS011;3551;41.578;24.706;2024-03-02T06:27:03;56.03;;;33.20;;
3463;SDS011;3551;41.578;24.706;2024-03-02T06:29:32;70.93;;;37.43;;
3463;SDS011;3551;41.578;24.706;2024-03-02T06:31:59;58.90;;;34.10;;
3463;SDS011;3551;41.578;24.706;2024-03-02T06:34:42;60.27;;;37.07;;
3463;SDS011;3551;41.578;24.706;2024-03-02T06:40:27;68.27;;;39.37;;
3463;SDS011;3551;41.578;24.706;2024-03-02T06:42:59;67.53;;;36.80;;
3463;SDS011;3551;41.578;24.706;2024-03-02T06:45:37;66.97;;;38.30;;
3463;SDS011;3551;41.578;24.706;2024-03-02T06:48:12;67.20;;;38.37;;
3463;SDS011;3551;41.578;24.706;2024-03-02T06:50:43;71.83;;;40.17;;
3463;SDS011;3551;41.578;24.706;2024-03-02T06:53:10;74.60;;;40.73;;
3463;SDS011;3551;41.578;24.706;2024-03-02T06:55:39;99.60;;;49.97;;
3463;SDS011;3551;41.578;24.706;2024-03-02T06:58:05;89.30;;;51.60;;
3463;SDS011;3551;41.578;24.706;2024-03-02T07:00:32;92.90;;;51.60;;
3463;SDS011;3551;41.578;24.706;2024-03-02T07:02:59;73.03;;;42.27;;
3463;SDS011;3551;41.578;24.706;2024-03-02T07:05:26;99.93;;;52.70;;
3463;SDS011;3551;41.578;24.706;2024-03-02T07:07:53;108.03;;;56.55;;
3463;SDS011;3551;41.578;24.706;2024-03-02T07:10:20;118.53;;;55.85;;
3463;SDS011;3551;41.578;24.706;2024-03-02T07:12:48;106.47;;;57.20;;
3463;SDS011;3551;41.578;24.706;2024-03-02T07:15:15;105.10;;;54.83;;
3463;SDS011;3551;41.578;24.706;2024-03-02T07:18:02;106.13;;;55.00;;
3463;SDS011;3551;41.578;24.706;2024-03-02T07:20:30;97.13;;;54.63;;
3463;SDS011;3551;41.578;24.706;2024-03-02T07:22:57;105.13;;;55.25;;
3463;SDS011;3551;41.578;24.706;2024-03-02T07:25:24;98.70;;;53.87;;
3463;SDS011;3551;41.578;24.706;2024-03-02T07:27:53;97.65;;;53.15;;
3463;SDS011;3551;41.578;24.706;2024-03-02T07:30:20;90.40;;;50.85;;
3463;SDS011;3551;41.578;24.706;2024-03-02T07:32:49;95.33;;;48.67;;
3463;SDS011;3551;41.578;24.706;2024-03-02T07:35:17;74.77;;;43.17;;
3463;SDS011;3551;41.578;24.706;2024-03-02T07:37:44;67.10;;;40.10;;
3463;SDS011;3551;41.578;24.706;2024-03-02T07:40:11;71.97;;;41.83;;
3463;SDS011;3551;41.578;24.706;2024-03-02T07:42:48;70.97;;;39.50;;
3463;SDS011;3551;41.578;24.706;2024-03-02T07:45:19;57.80;;;33.33;;
3463;SDS011;3551;41.578;24.706;2024-03-02T07:47:46;63.40;;;34.00;;
3463;SDS011;3551;41.578;24.706;2024-03-02T07:50:15;54.93;;;32.37;;
3463;SDS011;3551;41.578;24.706;2024-03-02T07:52:42;54.03;;;31.23;;
3463;SDS011;3551;41.578;24.706;2024-03-02T07:55:08;53.80;;;31.40;;
3463;SDS011;3551;41.578;24.706;2024-03-02T07:57:35;60.57;;;33.13;;
3463;SDS011;3551;41.578;24.706;2024-03-02T08:00:03;62.93;;;34.17;;
3463;SDS011;3551;41.578;24.706;2024-03-02T08:02:34;66.63;;;35.97;;
3463;SDS011;3551;41.578;24.706;2024-03-02T08:05:01;77.13;;;36.97;;
3463;SDS011;3551;41.578;24.706;2024-03-02T08:07:30;74.47;;;39.53;;
3463;SDS011;3551;41.578;24.706;2024-03-02T08:10:00;82.57;;;43.77;;
3463;SDS011;3551;41.578;24.706;2024-03-02T08:12:29;77.33;;;43.30;;
3463;SDS011;3551;41.578;24.706;2024-03-02T08:14:59;68.07;;;36.73;;
3463;SDS011;3551;41.578;24.706;2024-03-02T08:17:29;65.27;;;37.70;;
3463;SDS011;3551;41.578;24.706;2024-03-02T08:20:06;60.00;;;36.43;;
3463;SDS011;3551;41.578;24.706;2024-03-02T08:22:33;63.47;;;32.27;;
3463;SDS011;3551;41.578;24.706;2024-03-02T08:25:01;55.77;;;31.83;;
3463;SDS011;3551;41.578;24.706;2024-03-02T08:27:28;53.93;;;31.00;;
3463;SDS011;3551;41.578;24.706;2024-03-02T08:29:55;51.33;;;28.80;;
3463;SDS011;3551;41.578;24.706;2024-03-02T08:32:22;46.00;;;25.63;;
3463;SDS011;3551;41.578;24.706;2024-03-02T08:34:49;51.30;;;25.80;;
3463;SDS011;3551;41.578;24.706;2024-03-02T08:37:18;47.63;;;27.50;;
3463;SDS011;3551;41.578;24.706;2024-03-02T08:39:45;36.80;;;20.90;;
3463;SDS011;3551;41.578;24.706;2024-03-02T08:42:12;39.37;;;21.93;;
3463;SDS011;3551;41.578;24.706;2024-03-02T08:44:39;39.77;;;20.73;;
3463;SDS011;3551;41.578;24.706;2024-03-02T08:47:06;37.40;;;20.10;;
3463;SDS011;3551;41.578;24.706;2024-03-02T08:49:33;36.30;;;19.83;;
3463;SDS011;3551;41.578;24.706;2024-03-02T08:52:01;34.23;;;19.10;;
3463;SDS011;3551;41.578;24.706;2024-03-02T08:54:30;28.27;;;17.33;;
3463;SDS011;3551;41.578;24.706;2024-03-02T08:57:06;35.87;;;20.80;;
3463;SDS011;3551;41.578;24.706;2024-03-02T08:59:33;37.33;;;19.07;;
3463;SDS011;3551;41.578;24.706;2024-03-02T09:02:00;34.13;;;19.83;;
3463;SDS011;3551;41.578;24.706;2024-03-02T09:04:30;32.47;;;18.73;;
3463;SDS011;3551;41.578;24.706;2024-03-02T09:06:59;32.03;;;19.10;;
3463;SDS011;3551;41.578;24.706;2024-03-02T09:09:26;28.53;;;16.50;;
3463;SDS011;3551;41.578;24.706;2024-03-02T09:11:58;28.37;;;16.47;;
3463;SDS011;3551;41.578;24.706;2024-03-02T09:14:33;37.03;;;19.57;;
3463;SDS011;3551;41.578;24.706;2024-03-02T09:17:02;28.37;;;18.43;;
3463;SDS011;3551;41.578;24.706;2024-03-02T09:19:29;34.53;;;19.20;;
3463;SDS011;3551;41.578;24.706;2024-03-02T09:21:58;27.57;;;16.50;;
3463;SDS011;3551;41.578;24.706;2024-03-02T09:24:28;30.20;;;17.03;;
3463;SDS011;3551;41.578;24.706;2024-03-02T09:26:55;30.60;;;17.70;;
3463;SDS011;3551;41.578;24.706;2024-03-02T09:29:24;27.23;;;14.80;;
3463;SDS011;3551;41.578;24.706;2024-03-02T09:31:51;25.30;;;14.57;;
3463;SDS011;3551;41.578;24.706;2024-03-02T09:34:23;23.53;;;14.40;;
3463;SDS011;3551;41.578;24.706;2024-03-02T09:36:50;17.90;;;11.87;;
3463;SDS011;3551;41.578;24.706;2024-03-02T09:39:18;24.90;;;12.20;;
3463;SDS011;3551;41.578;24.706;2024-03-02T09:41:45;21.60;;;12.30;;
3463;SDS011;3551;41.578;24.706;2024-03-02T09:44:16;15.33;;;9.60;;
3463;SDS011;3551;41.578;24.706;2024-03-02T09:46:49;15.93;;;10.20;;
3463;SDS011;3551;41.578;24.706;2024-03-02T09:49:16;22.93;;;12.37;;
3463;SDS011;3551;41.578;24.706;2024-03-02T09:51:44;19.07;;;11.40;;
3463;SDS011;3551;41.578;24.706;2024-03-02T09:54:17;16.50;;;10.33;;
3463;SDS011;3551;41.578;24.706;2024-03-02T09:56:43;17.40;;;9.47;;
3463;SDS011;3551;41.578;24.706;2024-03-02T09:59:13;18.70;;;11.20;;
3463;SDS011;3551;41.578;24.706;2024-03-02T10:02:02;26.73;;;13.23;;
3463;SDS011;3551;41.578;24.706;2024-03-02T10:04:32;31.43;;;15.90;;
3463;SDS011;3551;41.578;24.706;2024-03-02T10:07:10;31.40;;;17.47;;
3463;SDS011;3551;41.578;24.706;2024-03-02T10:09:38;35.43;;;18.83;;
3463;SDS011;3551;41.578;24.706;2024-03-02T10:12:06;26.80;;;16.83;;
3463;SDS011;3551;41.578;24.706;2024-03-02T10:14:36;34.87;;;19.73;;
3463;SDS011;3551;41.578;24.706;2024-03-02T10:17:06;44.83;;;21.80;;
3463;SDS011;3551;41.578;24.706;2024-03-02T10:19:34;32.93;;;19.63;;
3463;SDS011;3551;41.578;24.706;2024-03-02T10:22:02;34.20;;;19.20;;
3463;SDS011;3551;41.578;24.706;2024-03-02T10:24:37;53.33;;;18.40;;
3463;SDS011;3551;41.578;24.706;2024-03-02T10:27:08;41.27;;;17.97;;
3463;SDS011;3551;41.578;24.706;2024-03-02T10:29:37;41.60;;;18.23;;
3463;SDS011;3551;41.578;24.706;2024-03-02T10:32:10;44.47;;;16.80;;
3463;SDS011;3551;41.578;24.706;2024-03-02T10:34:38;52.70;;;15.70;;
3463;SDS011;3551;41.578;24.706;2024-03-02T10:37:06;33.53;;;12.87;;
3463;SDS011;3551;41.578;24.706;2024-03-02T10:39:34;34.57;;;12.60;;
3463;SDS011;3551;41.578;24.706;2024-03-02T10:42:02;18.97;;;10.47;;
3463;SDS011;3551;41.578;24.706;2024-03-02T10:44:30;25.70;;;12.20;;
3463;SDS011;3551;41.578;24.706;2024-03-02T10:46:57;24.17;;;11.60;;
3463;SDS011;3551;41.578;24.706;2024-03-02T10:49:29;19.77;;;12.70;;
3463;SDS011;3551;41.578;24.706;2024-03-02T10:51:57;24.67;;;14.37;;
3463;SDS011;3551;41.578;24.706;2024-03-02T10:54:24;19.47;;;11.63;;
3463;SDS011;3551;41.578;24.706;2024-03-02T10:56:55;19.80;;;12.43;;
3463;SDS011;3551;41.578;24.706;2024-03-02T10:59:26;19.87;;;10.30;;
3463;SDS011;3551;41.578;24.706;2024-03-02T11:01:56;24.73;;;10.53;;
3463;SDS011;3551;41.578;24.706;2024-03-02T11:04:27;25.60;;;13.60;;
3463;SDS011;3551;41.578;24.706;2024-03-02T11:06:59;25.50;;;14.47;;
3463;SDS011;3551;41.578;24.706;2024-03-02T11:09:33;28.20;;;16.33;;
3463;SDS011;3551;41.578;24.706;2024-03-02T11:12:02;30.03;;;13.70;;
3463;SDS011;3551;41.578;24.706;2024-03-02T11:14:37;22.07;;;12.70;;
3463;SDS011;3551;41.578;24.706;2024-03-02T11:17:08;25.23;;;12.57;;
3463;SDS011;3551;41.578;24.706;2024-03-02T11:19:38;39.47;;;15.03;;
3463;SDS011;3551;41.578;24.706;2024-03-02T11:22:09;22.50;;;13.87;;
3463;SDS011;3551;41.578;24.706;2024-03-02T11:24:37;27.30;;;11.30;;
3463;SDS011;3551;41.578;24.706;2024-03-02T11:27:05;16.33;;;9.37;;
3463;SDS011;3551;41.578;24.706;2024-03-02T11:29:44;15.50;;;9.53;;
3463;SDS011;3551;41.578;24.706;2024-03-02T11:32:16;17.30;;;10.33;;
3463;SDS011;3551;41.578;24.706;2024-03-02T11:34:49;14.57;;;8.20;;
3463;SDS011;3551;41.578;24.706;2024-03-02T11:37:17;16.67;;;9.07;;
3463;SDS011;3551;41.578;24.706;2024-03-02T11:39:45;21.40;;;11.50;;
3463;SDS011;3551;41.578;24.706;2024-03-02T11:42:17;17.10;;;8.67;;
3463;SDS011;3551;41.578;24.706;2024-03-02T11:44:45;16.60;;;9.70;;
3463;SDS011;3551;41.578;24.706;2024-03-02T11:47:14;17.80;;;9.23;;
3463;SDS011;3551;41.578;24.706;2024-03-02T11:49:50;13.97;;;8.90;;
3463;SDS011;3551;41.578;24.706;2024-03-02T11:52:18;15.93;;;9.27;;
3463;SDS011;3551;41.578;24.706;2024-03-02T11:54:51;14.27;;;9.40;;
3463;SDS011;3551;41.578;24.706;2024-03-02T11:57:21;15.13;;;7.97;;
3463;SDS011;3551;41.578;24.706;2024-03-02T11:59:48;12.70;;;7.47;;
3463;SDS011;3551;41.578;24.706;2024-03-02T12:02:16;15.00;;;8.50;;
3463;SDS011;3551;41.578;24.706;2024-03-02T12:04:55;16.60;;;7.07;;
3463;SDS011;3551;41.578;24.706;2024-03-02T12:07:37;13.47;;;8.50;;
3463;SDS011;3551;41.578;24.706;2024-03-02T12:10:05;12.90;;;8.10;;
3463;SDS011;3551;41.578;24.706;2024-03-02T12:12:38;17.60;;;8.40;;
3463;SDS011;3551;41.578;24.706;2024-03-02T12:15:08;14.00;;;6.90;;
3463;SDS011;3551;41.578;24.706;2024-03-02T12:17:35;13.60;;;8.30;;
3463;SDS011;3551;41.578;24.706;2024-03-02T12:20:05;13.57;;;8.37;;
3463;SDS011;3551;41.578;24.706;2024-03-02T12:22:33;13.60;;;7.30;;
3463;SDS011;3551;41.578;24.706;2024-03-02T12:25:01;13.00;;;6.53;;
3463;SDS011;3551;41.578;24.706;2024-03-02T12:27:32;16.30;;;7.40;;
3463;SDS011;3551;41.578;24.706;2024-03-02T12:29:59;12.63;;;7.47;;
3463;SDS011;3551;41.578;24.706;2024-03-02T12:32:26;9.47;;;5.40;;
3463;SDS011;3551;41.578;24.706;2024-03-02T12:34:53;5.77;;;3.40;;
3463;SDS011;3551;41.578;24.706;2024-03-02T12:37:23;9.27;;;5.53;;
3463;SDS011;3551;41.578;24.706;2024-03-02T12:39:50;10.30;;;6.50;;
3463;SDS011;3551;41.578;24.706;2024-03-02T12:42:19;10.63;;;6.07;;
3463;SDS011;3551;41.578;24.706;2024-03-02T12:44:46;11.20;;;6.90;;
3463;SDS011;3551;41.578;24.706;2024-03-02T12:47:13;11.37;;;7.10;;
3463;SDS011;3551;41.578;24.706;2024-03-02T12:49:40;9.70;;;5.60;;
3463;SDS011;3551;41.578;24.706;2024-03-02T12:52:07;10.00;;;5.17;;
3463;SDS011;3551;41.578;24.706;2024-03-02T12:54:35;6.10;;;3.23;;
3463;SDS011;3551;41.578;24.706;2024-03-02T12:57:03;13.57;;;7.30;;
3463;SDS011;3551;41.578;24.706;2024-03-02T12:59:30;7.90;;;4.63;;
3463;SDS011;3551;41.578;24.706;2024-03-02T13:01:57;9.30;;;5.70;;
3463;SDS011;3551;41.578;24.706;2024-03-02T13:04:24;8.37;;;4.90;;
3463;SDS011;3551;41.578;24.706;2024-03-02T13:06:52;8.83;;;5.37;;
3463;SDS011;3551;41.578;24.706;2024-03-02T13:09:19;7.70;;;4.07;;
3463;SDS011;3551;41.578;24.706;2024-03-02T13:11:48;8.93;;;4.57;;
3463;SDS011;3551;41.578;24.706;2024-03-02T13:14:15;15.47;;;8.50;;
3463;SDS011;3551;41.578;24.706;2024-03-02T13:16:42;9.87;;;5.40;;
3463;SDS011;3551;41.578;24.706;2024-03-02T13:19:13;14.43;;;8.70;;
3463;SDS011;3551;41.578;24.706;2024-03-02T13:21:40;15.50;;;6.27;;
3463;SDS011;3551;41.578;24.706;2024-03-02T13:24:07;10.37;;;5.10;;
3463;SDS011;3551;41.578;24.706;2024-03-02T13:26:34;10.43;;;4.37;;
3463;SDS011;3551;41.578;24.706;2024-03-02T13:29:03;11.77;;;4.60;;
3463;SDS011;3551;41.578;24.706;2024-03-02T13:31:30;9.10;;;4.80;;
3463;SDS011;3551;41.578;24.706;2024-03-02T13:33:57;11.83;;;4.10;;
3463;SDS011;3551;41.578;24.706;2024-03-02T13:36:27;10.20;;;5.43;;
3463;SDS011;3551;41.578;24.706;2024-03-02T13:38:55;6.60;;;3.43;;
3463;SDS011;3551;41.578;24.706;2024-03-02T13:41:26;3.57;;;2.33;;
3463;SDS011;3551;41.578;24.706;2024-03-02T13:43:53;13.60;;;5.40;;
3463;SDS011;3551;41.578;24.706;2024-03-02T13:46:30;17.60;;;6.20;;
3463;SDS011;3551;41.578;24.706;2024-03-02T13:48:58;14.40;;;7.63;;
3463;SDS011;3551;41.578;24.706;2024-03-02T13:51:25;12.30;;;7.43;;
3463;SDS011;3551;41.578;24.706;2024-03-02T13:53:55;12.43;;;7.50;;
3463;SDS011;3551;41.578;24.706;2024-03-02T13:56:23;20.83;;;8.30;;
3463;SDS011;3551;41.578;24.706;2024-03-02T13:58:52;15.93;;;8.53;;
3463;SDS011;3551;41.578;24.706;2024-03-02T14:01:19;12.00;;;7.30;;
3463;SDS011;3551;41.578;24.706;2024-03-02T14:03:50;14.27;;;7.20;;
3463;SDS011;3551;41.578;24.706;2024-03-02T14:06:24;16.10;;;7.30;;
3463;SDS011;3551;41.578;24.706;2024-03-02T14:09:32;10.10;;;6.30;;
3463;SDS011;3551;41.578;24.706;2024-03-02T14:12:00;16.43;;;6.93;;
3463;SDS011;3551;41.578;24.706;2024-03-02T14:14:27;19.30;;;8.17;;
3463;SDS011;3551;41.578;24.706;2024-03-02T14:16:54;12.90;;;8.27;;
3463;SDS011;3551;41.578;24.706;2024-03-02T14:19:27;18.97;;;9.63;;
3463;SDS011;3551;41.578;24.706;2024-03-02T14:21:54;14.60;;;8.63;;
3463;SDS011;3551;41.578;24.706;2024-03-02T14:24:23;20.17;;;7.97;;
3463;SDS011;3551;41.578;24.706;2024-03-02T14:26:51;14.17;;;7.70;;
3463;SDS011;3551;41.578;24.706;2024-03-02T14:29:18;13.43;;;6.57;;
3463;SDS011;3551;41.578;24.706;2024-03-02T14:31:45;26.43;;;10.10;;
3463;SDS011;3551;41.578;24.706;2024-03-02T14:34:13;15.90;;;8.77;;
3463;SDS011;3551;41.578;24.706;2024-03-02T14:36:47;18.20;;;9.43;;
3463;SDS011;3551;41.578;24.706;2024-03-02T14:39:14;14.70;;;10.00;;
3463;SDS011;3551;41.578;24.706;2024-03-02T14:41:42;18.73;;;11.73;;
3463;SDS011;3551;41.578;24.706;2024-03-02T14:44:09;17.43;;;10.93;;
3463;SDS011;3551;41.578;24.706;2024-03-02T14:46:37;21.60;;;11.80;;
3463;SDS011;3551;41.578;24.706;2024-03-02T14:49:05;26.20;;;15.50;;
3463;SDS011;3551;41.578;24.706;2024-03-02T14:51:33;29.60;;;15.57;;
3463;SDS011;3551;41.578;24.706;2024-03-02T14:54:11;30.27;;;14.60;;